CheckWX is a tool to help pilots better visualize weather data.  It is not intended as a substitute for an official pre-flight weather briefing.

19:58:34 UTC

CWLI METAR
Liverpool Bay Airport
Canada
Current

59 mins ago

CWLI 211900Z AUTO 09019KT ////SM //// SCT012 BKN036 05/03 A2931
Observed
Sep-21 @ 19:00 UTC
Wind
  • 090° at 19 KTS
Visibility
Cloud Levels
  • Scattered at 1,200' AGL
  • Broken at 3,600' AGL
Temperature
C / 41°F
Dewpoint
C / 37°F
Humidity
87%
Altimeter
29.31" Hg
Pressure
992.52 hPa
Previous

2 hours ago

CWLI 211821Z AUTO 09018G24KT ////SM //// OVC010 05/04 A2931
Observed
Sep-21 @ 18:21 UTC
Wind
  • 090° at 18 KTS
  • Gusting to 24 KTS
Visibility
Cloud Levels
  • Overcast at 1,000' AGL
Temperature
C / 41°F
Dewpoint
C / 39°F
Humidity
93%
Altimeter
29.31" Hg
Pressure
992.52 hPa
Previous

2 hours ago

CWLI 211800Z AUTO 08019G25KT ////SM //// OVC009 05/03 A2931
Observed
Sep-21 @ 18:00 UTC
Wind
  • 080° at 19 KTS
  • Gusting to 25 KTS
Visibility
Cloud Levels
  • Overcast at 900' AGL
Temperature
C / 41°F
Dewpoint
C / 37°F
Humidity
87%
Altimeter
29.31" Hg
Pressure
992.52 hPa